Time;durP1;ratioP1;P1;durP2;ratioP2;P2;SDS_P1;SDS_P2;PMS_P1;PMS_P2;Temp;Humidity;BMP_temperature;BMP_pressure;BME280_temperature;BME280_humidity;BME280_pressure;Samples;Min_cycle;Max_cycle;Signal;HPM_P1;HPM_P2
2023/04/18 00:00:17;;;;;;;10.48;5.80;;;8.40;99.90;;;;;;5075541;28;20490;-62
2023/04/18 00:02:44;;;;;;;20.53;7.00;;;8.40;99.90;;;;;;5076918;28;20099;-62
2023/04/18 00:05:11;;;;;;;23.00;9.60;;;8.40;99.90;;;;;;5076615;28;20312;-62
2023/04/18 00:07:37;;;;;;;;;;;8.40;99.90;;;;;;5077250;28;20031;-62
2023/04/18 00:10:04;;;;;;;15.55;8.25;;;8.30;99.90;;;;;;5076680;28;20318;-62
2023/04/18 00:12:33;;;;;;;14.15;7.90;;;8.30;99.90;;;;;;5076183;28;20082;-62
2023/04/18 00:14:59;;;;;;;13.95;7.22;;;8.20;99.90;;;;;;5076140;28;20127;-62
2023/04/18 00:17:26;;;;;;;19.02;8.75;;;8.20;99.90;;;;;;5076368;28;20303;-61
2023/04/18 00:19:52;;;;;;;;;;;8.10;99.90;;;;;;5076904;28;20423;-62
2023/04/18 00:22:21;;;;;;;13.48;5.90;;;8.10;99.90;;;;;;5075937;28;19912;-62
2023/04/18 00:24:50;;;;;;;18.38;7.68;;;8.00;99.90;;;;;;5076481;28;20020;-62
2023/04/18 00:27:20;;;;;;;15.07;7.43;;;8.10;99.90;;;;;;5074429;28;20024;-62
2023/04/18 00:29:46;;;;;;;13.98;5.93;;;8.00;99.90;;;;;;5076182;28;20047;-62
2023/04/18 00:32:12;;;;;;;12.68;6.13;;;8.00;99.90;;;;;;5075079;28;20024;-62
2023/04/18 00:34:39;;;;;;;8.33;6.27;;;8.00;99.90;;;;;;5075800;28;20139;-75
2023/04/18 00:37:05;;;;;;;;;;;8.00;99.90;;;;;;5076599;28;20044;-62
2023/04/18 00:39:30;;;;;;;14.40;6.57;;;8.00;99.90;;;;;;5076274;28;19935;-62
2023/04/18 00:41:56;;;;;;;11.37;5.57;;;8.00;99.90;;;;;;5075905;28;20115;-62
2023/04/18 00:44:22;;;;;;;9.60;5.30;;;7.90;99.90;;;;;;5076483;28;20315;-62
2023/04/18 00:46:47;;;;;;;12.20;6.53;;;8.00;99.90;;;;;;5075393;28;20020;-62
2023/04/18 00:49:14;;;;;;;9.03;4.00;;;8.00;99.90;;;;;;5076264;28;20016;-62
2023/04/18 00:51:39;;;;;;;10.85;5.88;;;8.00;99.90;;;;;;5075810;28;20025;-63
2023/04/18 00:54:07;;;;;;;13.93;5.83;;;7.90;99.90;;;;;;5076063;28;20423;-62
2023/04/18 00:56:34;;;;;;;15.13;6.72;;;7.80;99.90;;;;;;5075641;28;20024;-62
2023/04/18 00:59:00;;;;;;;10.43;4.88;;;7.80;99.90;;;;;;5061987;28;20085;-62
2023/04/18 01:01:26;;;;;;;10.27;6.10;;;7.80;99.90;;;;;;5075419;28;20029;-62
2023/04/18 01:03:52;;;;;;;6.38;3.88;;;7.80;99.90;;;;;;5075327;28;20103;-62
2023/04/18 01:06:18;;;;;;;14.60;6.20;;;7.80;99.90;;;;;;5075516;28;20060;-62
2023/04/18 01:08:44;;;;;;;13.33;6.33;;;7.70;99.90;;;;;;5075230;28;20021;-62
2023/04/18 01:11:10;;;;;;;13.77;7.33;;;7.70;99.90;;;;;;5075653;28;20388;-62
2023/04/18 01:13:35;;;;;;;15.70;5.97;;;7.70;99.90;;;;;;5075478;28;20430;-62
2023/04/18 01:16:01;;;;;;;12.53;6.10;;;7.70;99.90;;;;;;5075791;28;20042;-62
2023/04/18 01:18:30;;;;;;;10.70;5.27;;;7.70;99.90;;;;;;5075614;28;20025;-62
2023/04/18 01:20:59;;;;;;;12.00;5.88;;;7.70;99.90;;;;;;5074714;28;20042;-62
2023/04/18 01:23:25;;;;;;;13.48;6.50;;;7.70;99.90;;;;;;5074168;28;20112;-62
2023/04/18 01:25:51;;;;;;;10.20;5.70;;;7.60;99.90;;;;;;5074982;28;20021;-62
2023/04/18 01:28:20;;;;;;;12.63;6.07;;;7.50;99.90;;;;;;5074450;28;20676;-62
2023/04/18 01:30:45;;;;;;;10.57;6.05;;;7.60;99.90;;;;;;5074759;28;20032;-62
2023/04/18 01:33:11;;;;;;;10.63;6.73;;;7.50;99.90;;;;;;5074941;28;20142;-62
2023/04/18 01:35:37;;;;;;;13.23;6.27;;;7.60;99.90;;;;;;5075123;28;20025;-62
2023/04/18 01:38:02;;;;;;;14.00;5.80;;;7.50;99.90;;;;;;5074802;28;20116;-62
2023/04/18 01:40:31;;;;;;;8.47;4.73;;;7.50;99.90;;;;;;5075099;28;20037;-62
2023/04/18 01:42:57;;;;;;;7.53;4.30;;;7.40;99.90;;;;;;5075110;28;20032;-62
2023/04/18 01:45:23;;;;;;;16.07;6.90;;;7.40;99.90;;;;;;5060961;28;20017;-62
2023/04/18 01:47:48;;;;;;;10.23;5.87;;;7.40;99.90;;;;;;5074919;28;20086;-62
2023/04/18 01:50:14;;;;;;;16.57;6.53;;;7.30;99.90;;;;;;5074791;28;20016;-78
2023/04/18 01:52:40;;;;;;;13.37;5.80;;;7.20;99.90;;;;;;5074941;28;20296;-62
2023/04/18 01:55:06;;;;;;;10.88;6.18;;;7.20;99.90;;;;;;5074709;28;20081;-62
2023/04/18 01:57:35;;;;;;;11.03;6.90;;;7.10;99.90;;;;;;5074872;28;20040;-61
2023/04/18 02:00:02;;;;;;;15.73;7.28;;;7.10;99.90;;;;;;5074421;28;20048;-62
2023/04/18 02:02:28;;;;;;;17.38;6.47;;;7.00;99.90;;;;;;5074653;28;20032;-62
2023/04/18 02:04:54;;;;;;;13.97;4.57;;;7.00;99.90;;;;;;5075090;28;20028;-62
2023/04/18 02:07:19;;;;;;;11.37;5.80;;;7.00;99.90;;;;;;5074372;28;20293;-63
2023/04/18 02:09:45;;;;;;;13.30;6.80;;;6.90;99.90;;;;;;5073777;28;20024;-62
2023/04/18 02:12:11;;;;;;;10.70;6.43;;;6.90;99.90;;;;;;5074188;28;20039;-62
2023/04/18 02:14:37;;;;;;;18.40;7.47;;;6.90;99.90;;;;;;5074955;28;20029;-62
2023/04/18 02:17:02;;;;;;;13.07;7.07;;;6.80;99.90;;;;;;5074654;28;20261;-62
2023/04/18 02:19:29;;;;;;;15.70;6.73;;;6.80;99.90;;;;;;5073892;28;20108;-62
2023/04/18 02:21:55;;;;;;;12.52;6.13;;;6.80;99.90;;;;;;5074418;28;20099;-62
2023/04/18 02:24:21;;;;;;;14.20;7.10;;;6.70;99.90;;;;;;5073401;28;20047;-77
2023/04/18 02:26:46;;;;;;;14.00;6.00;;;6.70;99.90;;;;;;5074425;28;20487;-62
2023/04/18 02:29:12;;;;;;;12.47;6.20;;;6.70;99.90;;;;;;5074373;28;20132;-62
2023/04/18 02:31:39;;;;;;;14.77;6.30;;;6.70;99.90;;;;;;5074384;28;20025;-62
2023/04/18 02:34:06;;;;;;;16.15;5.65;;;6.60;99.90;;;;;;5074582;28;20027;-62
2023/04/18 02:36:32;;;;;;;11.57;6.35;;;6.70;99.90;;;;;;5073897;28;20056;-62
2023/04/18 02:38:58;;;;;;;14.70;6.57;;;6.70;99.90;;;;;;5076922;28;20031;-62
2023/04/18 02:41:24;;;;;;;13.23;6.90;;;6.70;99.90;;;;;;5078137;28;20103;-79
2023/04/18 02:43:49;;;;;;;11.40;5.40;;;6.70;99.90;;;;;;5077277;28;20020;-62
2023/04/18 02:46:15;;;;;;;14.40;6.43;;;6.70;99.90;;;;;;5078385;28;20021;-62
2023/04/18 02:48:41;;;;;;;13.47;7.27;;;6.70;99.90;;;;;;5078237;28;20020;-62
2023/04/18 02:51:07;;;;;;;13.03;7.30;;;6.70;99.90;;;;;;5077973;28;20036;-74
2023/04/18 02:53:34;;;;;;;11.52;5.47;;;6.60;99.90;;;;;;5078429;28;20028;-62
2023/04/18 02:56:00;;;;;;;14.85;6.53;;;6.60;99.90;;;;;;5077666;28;20032;-76
2023/04/18 02:58:26;;;;;;;14.35;7.10;;;6.60;99.90;;;;;;5077995;28;20029;-62
2023/04/18 03:00:53;;;;;;;13.15;6.85;;;6.70;99.90;;;;;;5077668;28;20059;-62
2023/04/18 03:03:20;;;;;;;13.48;6.70;;;6.60;99.90;;;;;;5077939;28;20044;-62
2023/04/18 03:05:46;;;;;;;10.57;6.10;;;6.60;99.90;;;;;;5077872;28;20025;-62
2023/04/18 03:08:12;;;;;;;12.45;6.35;;;6.60;99.90;;;;;;5077470;28;20289;-62
2023/04/18 03:10:38;;;;;;;16.07;5.83;;;6.60;99.90;;;;;;5078073;28;20027;-62
2023/04/18 03:13:04;;;;;;;12.65;6.32;;;6.60;99.90;;;;;;5077327;28;20032;-67
2023/04/18 03:15:30;;;;;;;13.77;6.97;;;6.50;99.90;;;;;;5077871;28;20478;-62
2023/04/18 03:17:56;;;;;;;10.93;6.90;;;6.50;99.90;;;;;;5077110;28;20119;-62
2023/04/18 03:20:22;;;;;;;14.73;7.15;;;6.60;99.90;;;;;;5077720;28;20033;-62
2023/04/18 03:22:48;;;;;;;15.35;7.18;;;6.60;99.90;;;;;;5076438;28;20040;-74
2023/04/18 03:25:14;;;;;;;10.93;7.23;;;6.50;99.90;;;;;;5077304;28;20021;-62
2023/04/18 03:27:41;;;;;;;19.77;6.70;;;6.50;99.90;;;;;;5077525;28;20023;-61
2023/04/18 03:30:08;;;;;;;13.68;6.93;;;6.40;99.90;;;;;;5076876;28;20351;-62
2023/04/18 03:32:33;;;;;;;14.48;6.95;;;6.40;99.90;;;;;;5077318;28;20438;-62
2023/04/18 03:35:00;;;;;;;17.10;7.43;;;6.30;99.90;;;;;;5077302;28;20058;-62
2023/04/18 03:37:25;;;;;;;16.05;6.90;;;6.30;99.90;;;;;;5077230;28;20386;-62
2023/04/18 03:39:51;;;;;;;12.23;6.53;;;6.30;99.90;;;;;;5077416;28;20108;-62
2023/04/18 03:42:17;;;;;;;7.80;4.60;;;6.20;99.90;;;;;;5076737;28;20419;-61
2023/04/18 03:44:43;;;;;;;3.63;1.90;;;6.30;99.90;;;;;;5077276;28;20024;-63
2023/04/18 03:47:08;;;;;;;13.20;6.53;;;6.30;99.90;;;;;;5076767;28;20096;-62
2023/04/18 03:49:34;;;;;;;10.10;6.23;;;6.30;99.90;;;;;;5076000;28;20032;-62
2023/04/18 03:52:00;;;;;;;13.97;6.87;;;6.30;99.90;;;;;;5077111;28;20032;-62
2023/04/18 03:54:26;;;;;;;10.47;6.30;;;6.30;99.90;;;;;;5063115;28;20395;-64
2023/04/18 03:56:51;;;;;;;13.47;7.33;;;6.30;99.90;;;;;;5076882;28;20328;-62
2023/04/18 03:59:17;;;;;;;12.37;5.47;;;6.20;99.90;;;;;;5076953;28;20025;-61
2023/04/18 04:01:43;;;;;;;5.43;2.83;;;6.20;99.90;;;;;;5076555;28;20029;-62
2023/04/18 04:04:10;;;;;;;12.63;7.53;;;6.20;99.90;;;;;;5076517;28;20025;-61
2023/04/18 04:06:36;;;;;;;20.20;6.38;;;6.10;99.90;;;;;;5075682;28;20020;-61
2023/04/18 04:09:02;;;;;;;16.47;7.03;;;6.10;99.90;;;;;;5075347;28;20020;-61
2023/04/18 04:11:28;;;;;;;12.02;5.88;;;6.10;99.90;;;;;;5076555;28;20369;-62
2023/04/18 04:13:53;;;;;;;14.60;7.70;;;6.10;99.90;;;;;;5076879;28;20028;-61
2023/04/18 04:16:19;;;;;;;11.47;6.70;;;6.10;99.90;;;;;;5076669;28;20048;-63
2023/04/18 04:18:45;;;;;;;11.10;6.27;;;6.10;99.90;;;;;;5076562;28;20056;-61
2023/04/18 04:21:11;;;;;;;12.93;7.57;;;6.00;99.90;;;;;;5076317;28;20121;-62
2023/04/18 04:23:37;;;;;;;12.60;7.07;;;6.00;99.90;;;;;;5076485;28;20017;-62
2023/04/18 04:26:03;;;;;;;13.40;8.10;;;6.00;99.90;;;;;;5076062;28;20017;-64
2023/04/18 04:28:30;;;;;;;13.10;8.13;;;6.10;99.90;;;;;;5076211;28;20335;-62
2023/04/18 04:30:56;;;;;;;25.63;8.15;;;6.10;99.90;;;;;;5076035;28;20364;-61
2023/04/18 04:33:24;;;;;;;14.32;8.27;;;6.10;99.90;;;;;;5076058;28;20024;-65
2023/04/18 04:35:51;;;;;;;11.98;6.28;;;6.20;99.90;;;;;;5076180;28;20025;-62
2023/04/18 04:38:18;;;;;;;18.35;8.18;;;6.20;99.90;;;;;;5075750;28;20032;-61
2023/04/18 04:40:45;;;;;;;19.10;8.30;;;6.30;99.90;;;;;;5075993;28;20031;-62
2023/04/18 04:43:14;;;;;;;10.25;6.13;;;6.30;99.90;;;;;;5075750;28;20107;-62
2023/04/18 04:45:40;;;;;;;17.88;7.30;;;6.30;99.90;;;;;;5076266;28;20369;-72
2023/04/18 04:48:10;;;;;;;20.10;9.20;;;6.30;99.90;;;;;;5076189;28;20028;-63
2023/04/18 04:50:37;;;;;;;10.45;5.18;;;6.30;99.90;;;;;;5061967;28;20155;-61
2023/04/18 04:53:05;;;;;;;14.98;6.97;;;6.30;99.90;;;;;;5075620;28;20016;-63
2023/04/18 04:55:31;;;;;;;11.35;6.30;;;6.40;99.90;;;;;;5074314;28;20155;-62
2023/04/18 04:57:57;;;;;;;16.65;8.93;;;6.40;99.90;;;;;;5075636;28;20031;-68
2023/04/18 05:00:23;;;;;;;15.40;8.37;;;6.40;99.90;;;;;;5075689;28;20032;-61
2023/04/18 05:02:49;;;;;;;9.60;5.90;;;6.40;99.90;;;;;;5075040;28;20350;-61
2023/04/18 05:05:15;;;;;;;19.13;8.18;;;6.40;99.90;;;;;;5075442;28;20020;-62
2023/04/18 05:07:41;;;;;;;15.17;8.77;;;6.40;99.90;;;;;;5075355;28;20028;-61
2023/04/18 05:10:07;;;;;;;15.90;8.70;;;6.40;99.90;;;;;;5075461;28;20028;-62
2023/04/18 05:12:32;;;;;;;14.82;8.18;;;6.40;99.90;;;;;;5075163;28;20031;-62
2023/04/18 05:14:58;;;;;;;13.20;6.57;;;6.40;99.90;;;;;;5075130;28;20024;-62
2023/04/18 05:17:24;;;;;;;18.00;7.63;;;6.40;99.90;;;;;;5074422;28;20107;-62
2023/04/18 05:19:50;;;;;;;13.00;6.97;;;6.40;99.90;;;;;;5074960;28;20056;-61
2023/04/18 05:22:16;;;;;;;10.10;5.53;;;6.40;99.90;;;;;;5075314;28;20115;-62
2023/04/18 05:24:42;;;;;;;9.07;5.90;;;6.40;99.90;;;;;;5074872;28;20060;-64
2023/04/18 05:27:07;;;;;;;13.77;7.20;;;6.50;99.90;;;;;;5075323;28;20029;-66
2023/04/18 05:29:33;;;;;;;11.90;5.97;;;6.50;99.90;;;;;;5074494;28;20432;-62
2023/04/18 05:31:58;;;;;;;14.80;7.90;;;6.50;99.90;;;;;;5075471;28;20036;-62
2023/04/18 05:34:24;;;;;;;17.23;9.10;;;6.50;99.90;;;;;;5075394;28;20311;-68
2023/04/18 05:36:50;;;;;;;16.57;8.73;;;6.50;99.90;;;;;;5075099;28;20400;-66
2023/04/18 05:39:16;;;;;;;10.25;6.45;;;6.50;99.90;;;;;;5074998;28;20033;-62
2023/04/18 05:41:42;;;;;;;15.07;7.53;;;6.60;99.90;;;;;;5074818;28;20063;-61
2023/04/18 05:44:08;;;;;;;11.33;6.53;;;6.60;99.90;;;;;;5075298;28;20248;-62
2023/04/18 05:46:34;;;;;;;12.77;7.53;;;6.60;99.90;;;;;;5074733;28;20040;-61
2023/04/18 05:49:00;;;;;;;8.00;4.47;;;6.60;99.90;;;;;;5075294;28;20082;-62
2023/04/18 05:51:27;;;;;;;14.13;8.10;;;6.60;99.90;;;;;;5075082;28;20533;-61
2023/04/18 05:53:52;;;;;;;;;;;6.60;99.90;;;;;;5075052;28;20028;-62
2023/04/18 05:56:18;;;;;;;14.63;8.03;;;6.60;99.90;;;;;;5075269;28;20054;-61
2023/04/18 05:58:46;;;;;;;14.67;7.97;;;6.70;99.90;;;;;;5075093;28;20253;-62
2023/04/18 06:01:13;;;;;;;13.43;7.50;;;6.70;99.90;;;;;;5074264;28;20031;-61
2023/04/18 06:03:40;;;;;;;;;;;6.70;99.90;;;;;;5075258;28;20029;-61
2023/04/18 06:06:06;;;;;;;13.18;6.60;;;6.70;99.90;;;;;;5073707;28;19916;-73
2023/04/18 06:08:32;;;;;;;15.75;8.02;;;6.80;99.90;;;;;;5074621;28;20027;-61
2023/04/18 06:10:57;;;;;;;14.03;6.33;;;6.80;99.90;;;;;;5074620;28;20037;-62
2023/04/18 06:13:23;;;;;;;16.83;6.90;;;6.80;99.90;;;;;;5076067;28;20068;-62
2023/04/18 06:15:49;;;;;;;20.43;8.93;;;6.90;99.90;;;;;;5078491;28;20048;-61
2023/04/18 06:18:15;;;;;;;19.20;7.93;;;6.90;99.90;;;;;;5079109;28;20103;-62
2023/04/18 06:20:42;;;;;;;18.03;8.97;;;6.90;99.90;;;;;;5078642;28;20451;-62
2023/04/18 06:23:08;;;;;;;10.85;3.90;;;6.90;99.90;;;;;;5078355;28;20451;-62
2023/04/18 06:25:34;;;;;;;17.07;7.47;;;7.00;99.90;;;;;;5078646;28;20025;-65
2023/04/18 06:28:00;;;;;;;18.47;9.10;;;7.00;99.90;;;;;;5078416;28;20082;-62
2023/04/18 06:30:25;;;;;;;18.87;9.00;;;7.00;99.90;;;;;;5078466;28;20024;-61
2023/04/18 06:32:51;;;;;;;16.23;7.63;;;7.00;99.90;;;;;;5078222;28;20062;-62
2023/04/18 06:35:17;;;;;;;9.23;5.47;;;7.00;99.90;;;;;;5078396;28;20403;-61
2023/04/18 06:37:43;;;;;;;15.30;6.80;;;7.00;99.90;;;;;;5078836;28;20040;-61
2023/04/18 06:40:10;;;;;;;18.67;7.40;;;7.00;99.90;;;;;;5078121;28;20040;-61
2023/04/18 06:42:36;;;;;;;16.45;5.95;;;7.10;99.90;;;;;;5078604;28;20052;-61
2023/04/18 06:45:02;;;;;;;17.05;7.68;;;7.00;99.90;;;;;;5078049;28;20112;-62
2023/04/18 06:47:29;;;;;;;15.57;7.80;;;7.10;99.90;;;;;;5078261;28;20461;-61
2023/04/18 06:49:54;;;;;;;13.77;7.50;;;7.20;99.90;;;;;;5077851;28;20044;-61
2023/04/18 06:52:20;;;;;;;15.80;6.27;;;7.20;99.90;;;;;;5078056;28;20028;-61
2023/04/18 06:54:46;;;;;;;12.10;6.90;;;7.30;99.90;;;;;;5078283;28;20028;-62
2023/04/18 06:57:11;;;;;;;14.50;7.03;;;7.30;99.90;;;;;;5078101;28;20430;-62
2023/04/18 06:59:37;;;;;;;16.03;6.13;;;7.30;99.90;;;;;;5077771;28;20020;-61
2023/04/18 07:02:03;;;;;;;12.30;5.23;;;7.40;99.90;;;;;;5077870;28;20111;-61
2023/04/18 07:04:29;;;;;;;5.10;3.53;;;7.40;99.90;;;;;;5077546;28;20063;-71
2023/04/18 07:06:54;;;;;;;11.53;5.80;;;7.40;99.90;;;;;;5077999;28;20017;-62
2023/04/18 07:09:21;;;;;;;6.53;4.07;;;7.50;99.90;;;;;;5076217;28;20028;-61
2023/04/18 07:11:47;;;;;;;11.60;6.65;;;7.60;99.90;;;;;;5076601;28;20418;-61
2023/04/18 07:14:13;;;;;;;13.63;6.53;;;7.70;99.90;;;;;;5077399;28;20072;-61
2023/04/18 07:16:38;;;;;;;14.80;7.93;;;7.80;99.90;;;;;;5077658;28;20028;-61
2023/04/18 07:19:05;;;;;;;6.40;4.43;;;7.90;99.90;;;;;;5077826;28;20074;-61
2023/04/18 07:21:31;;;;;;;8.00;4.85;;;8.00;99.90;;;;;;5077073;28;20108;-61
2023/04/18 07:23:57;;;;;;;14.65;5.63;;;8.00;99.90;;;;;;5077507;28;20028;-61
2023/04/18 07:26:23;;;;;;;12.73;5.33;;;8.10;99.90;;;;;;5077368;28;20050;-61
2023/04/18 07:28:48;;;;;;;5.47;2.33;;;8.10;99.90;;;;;;5077465;28;20071;-66
2023/04/18 07:31:15;;;;;;;18.50;6.23;;;8.10;99.90;;;;;;5076845;28;20024;-62
2023/04/18 07:33:42;;;;;;;11.80;7.22;;;8.20;99.90;;;;;;5077689;28;20024;-62
2023/04/18 07:36:09;;;;;;;13.70;6.53;;;8.20;99.90;;;;;;5077646;28;20052;-61
2023/04/18 07:38:34;;;;;;;8.67;6.03;;;8.30;99.90;;;;;;5077389;28;20030;-61
2023/04/18 07:41:02;;;;;;;7.90;5.13;;;8.40;99.90;;;;;;5077274;28;20343;-62
2023/04/18 07:43:27;;;;;;;12.02;6.78;;;8.50;99.90;;;;;;5077230;28;20020;-61
2023/04/18 07:45:53;;;;;;;12.17;7.00;;;8.80;99.90;;;;;;5077158;28;20365;-62
2023/04/18 07:48:26;;;;;;;10.57;4.97;;;9.20;99.90;;;;;;5076902;28;20411;-63
2023/04/18 07:50:52;;;;;;;15.32;6.72;;;9.50;99.90;;;;;;5076743;28;20359;-61
2023/04/18 07:53:18;;;;;;;8.52;4.72;;;9.60;99.90;;;;;;5077116;28;20020;-61
2023/04/18 07:55:44;;;;;;;6.93;3.83;;;9.50;99.90;;;;;;5076571;28;20036;-62
2023/04/18 07:58:10;;;;;;;14.50;7.68;;;9.60;99.90;;;;;;5077098;28;20323;-62
2023/04/18 08:00:38;;;;;;;12.03;7.10;;;9.60;99.90;;;;;;5076368;28;20031;-65
2023/04/18 08:03:04;;;;;;;15.10;7.65;;;9.80;99.90;;;;;;5077111;28;20074;-62
2023/04/18 08:05:30;;;;;;;;;;;9.90;99.90;;;;;;5077225;28;20048;-62
2023/04/18 08:07:56;;;;;;;11.60;6.30;;;9.90;99.90;;;;;;5076576;28;20310;-62
2023/04/18 08:10:21;;;;;;;11.80;5.47;;;10.00;99.90;;;;;;5075607;28;20027;-64
2023/04/18 08:12:47;;;;;;;9.20;4.73;;;10.10;99.90;;;;;;5076269;28;20025;-62
2023/04/18 08:15:13;;;;;;;17.27;8.60;;;10.00;99.90;;;;;;5076546;28;20113;-62
2023/04/18 08:17:41;;;;;;;14.63;8.37;;;10.10;99.90;;;;;;5076372;28;20411;-62
2023/04/18 08:20:07;;;;;;;13.32;7.57;;;10.30;99.90;;;;;;5076573;28;20327;-61
2023/04/18 08:22:33;;;;;;;10.67;5.67;;;10.60;99.90;;;;;;5075157;28;20055;-62
2023/04/18 08:25:00;;;;;;;15.63;7.80;;;10.80;99.90;;;;;;5076305;28;20344;-61
2023/04/18 08:27:26;;;;;;;13.45;7.05;;;10.60;99.90;;;;;;5076361;28;20099;-62
2023/04/18 08:29:52;;;;;;;8.20;4.37;;;10.50;99.90;;;;;;5075897;28;20445;-63
2023/04/18 08:32:17;;;;;;;12.67;7.10;;;10.30;99.90;;;;;;5076500;28;20038;-62
2023/04/18 08:34:43;;;;;;;13.70;7.10;;;10.40;99.90;;;;;;5075743;28;20327;-62
2023/04/18 08:37:09;;;;;;;13.83;8.00;;;10.60;99.90;;;;;;5075869;28;20392;-62
2023/04/18 08:39:35;;;;;;;11.25;5.45;;;10.80;99.90;;;;;;5076106;28;20024;-63
2023/04/18 08:42:02;;;;;;;12.20;6.43;;;10.90;99.90;;;;;;5075399;28;20033;-63
2023/04/18 08:44:28;;;;;;;;;;;10.90;99.90;;;;;;5076525;28;20055;-64
2023/04/18 08:46:54;;;;;;;13.88;7.22;;;10.30;99.90;;;;;;5075597;28;19947;-63
2023/04/18 08:49:21;;;;;;;12.68;6.82;;;10.30;99.90;;;;;;5074766;28;20033;-65
2023/04/18 08:51:50;;;;;;;11.02;6.22;;;10.20;99.90;;;;;;5075716;28;20032;-62
2023/04/18 08:54:17;;;;;;;9.63;4.63;;;10.00;99.90;;;;;;5075502;28;20040;-61
2023/04/18 08:56:44;;;;;;;14.10;8.52;;;10.10;99.90;;;;;;5075851;28;20035;-64
2023/04/18 08:59:10;;;;;;;12.10;5.40;;;10.30;99.90;;;;;;5075567;28;20324;-62
2023/04/18 09:01:55;;;;;;;10.63;7.07;;;10.10;99.90;;;;;;5075894;28;20027;-68
2023/04/18 09:04:35;;;;;;;6.63;4.07;;;10.30;99.90;;;;;;5074032;28;20771;-67
2023/04/18 09:07:05;;;;;;;14.73;6.95;;;10.20;99.90;;;;;;5075613;28;20052;-63
2023/04/18 09:09:51;;;;;;;12.20;6.97;;;10.10;99.90;;;;;;5075623;28;20016;-62
2023/04/18 09:12:22;;;;;;;13.57;7.22;;;10.00;99.90;;;;;;5075471;28;20028;-63
2023/04/18 09:15:09;;;;;;;13.93;6.47;;;10.30;99.90;;;;;;5075420;28;20029;-62
2023/04/18 09:17:36;;;;;;;11.68;6.20;;;10.70;99.90;;;;;;5074796;28;20455;-62
2023/04/18 09:20:04;;;;;;;12.68;6.63;;;10.90;99.90;;;;;;5075333;28;20104;-62
2023/04/18 09:22:50;;;;;;;12.95;6.15;;;10.80;99.90;;;;;;5075040;28;20056;-62
2023/04/18 09:25:33;;;;;;;12.55;7.22;;;11.00;99.90;;;;;;5063382;28;20021;-63
2023/04/18 09:28:04;;;;;;;14.90;6.68;;;10.80;99.90;;;;;;5074672;28;20416;-62
2023/04/18 09:30:38;;;;;;;7.45;4.80;;;10.50;99.90;;;;;;5075555;28;20052;-63
2023/04/18 09:33:08;;;;;;;7.90;4.47;;;10.40;99.90;;;;;;5074659;28;20104;-62
2023/04/18 09:35:37;;;;;;;7.25;4.22;;;10.50;99.90;;;;;;5075258;28;20070;-63
2023/04/18 09:38:03;;;;;;;14.38;6.93;;;10.50;99.90;;;;;;5074987;28;20024;-67
2023/04/18 09:40:30;;;;;;;17.02;8.32;;;10.70;99.90;;;;;;5074001;28;20027;-62
2023/04/18 09:42:56;;;;;;;14.10;7.70;;;10.90;99.90;;;;;;5074864;28;20035;-69
2023/04/18 09:45:23;;;;;;;11.27;4.23;;;10.70;99.90;;;;;;5074837;28;20016;-62
2023/04/18 09:47:49;;;;;;;15.25;8.25;;;10.40;99.90;;;;;;5074415;28;20032;-69
2023/04/18 09:50:17;;;;;;;14.05;8.73;;;10.40;99.90;;;;;;5074537;28;20016;-64
2023/04/18 09:52:44;;;;;;;10.88;5.75;;;10.60;99.90;;;;;;5073828;28;20311;-63
2023/04/18 09:55:17;;;;;;;14.65;6.57;;;10.80;99.90;;;;;;5075209;28;20067;-63
2023/04/18 09:57:46;;;;;;;15.88;7.32;;;10.70;99.90;;;;;;5073344;28;20049;-62
2023/04/18 10:00:19;;;;;;;10.43;5.95;;;10.50;99.90;;;;;;5075064;28;20044;-69
2023/04/18 10:03:08;;;;;;;12.13;7.68;;;10.60;99.90;;;;;;5074661;28;20069;-62
2023/04/18 10:05:38;;;;;;;11.52;5.93;;;10.50;99.90;;;;;;5074932;28;20352;-63
2023/04/18 10:08:05;;;;;;;9.45;5.32;;;10.50;99.90;;;;;;5061069;28;20451;-64
2023/04/18 10:10:32;;;;;;;15.65;8.13;;;10.30;99.90;;;;;;5074665;28;20738;-62
2023/04/18 10:13:00;;;;;;;10.27;7.13;;;10.30;99.90;;;;;;5074623;28;20075;-61
2023/04/18 10:15:28;;;;;;;16.48;8.73;;;10.30;99.90;;;;;;5073615;28;20032;-62
2023/04/18 10:17:58;;;;;;;14.15;7.10;;;10.70;99.90;;;;;;5074325;28;20104;-62
2023/04/18 10:20:29;;;;;;;13.02;6.60;;;10.90;99.90;;;;;;5074710;28;20408;-63
2023/04/18 10:22:56;;;;;;;11.23;5.28;;;10.80;99.90;;;;;;5072897;28;20044;-66
2023/04/18 10:25:37;;;;;;;13.98;7.20;;;10.90;99.90;;;;;;5074640;28;20091;-62
2023/04/18 10:28:07;;;;;;;10.77;5.93;;;11.00;99.90;;;;;;5074268;28;20052;-66
2023/04/18 10:30:39;;;;;;;9.98;6.22;;;10.90;99.90;;;;;;5074583;28;20426;-67
2023/04/18 10:33:27;;;;;;;12.45;7.38;;;11.00;99.90;;;;;;5074307;28;20040;-62
2023/04/18 10:36:00;;;;;;;6.35;3.05;;;11.20;99.90;;;;;;5074467;28;20029;-65
2023/04/18 10:38:26;;;;;;;15.10;6.63;;;11.20;99.90;;;;;;5073060;28;20048;-69
2023/04/18 10:40:52;;;;;;;12.05;6.82;;;11.00;99.90;;;;;;5074337;28;20074;-61
2023/04/18 10:43:18;;;;;;;13.17;6.30;;;10.90;99.90;;;;;;5074046;28;20408;-62
2023/04/18 10:45:44;;;;;;;12.63;6.13;;;10.80;99.90;;;;;;5074505;28;20315;-64
2023/04/18 10:48:29;;;;;;;8.07;5.20;;;10.90;99.90;;;;;;5072790;28;20025;-62
2023/04/18 10:51:17;;;;;;;10.60;6.13;;;10.90;99.90;;;;;;5074402;28;20159;-68
2023/04/18 10:53:50;;;;;;;7.95;4.15;;;11.00;99.90;;;;;;5073872;28;20029;-69
2023/04/18 10:56:16;;;;;;;15.55;6.43;;;11.10;99.90;;;;;;5074496;28;20024;-62
2023/04/18 10:58:48;;;;;;;12.03;7.27;;;11.10;99.90;;;;;;5074619;28;20312;-62
2023/04/18 11:01:14;;;;;;;11.65;7.72;;;11.30;99.90;;;;;;5075943;28;20058;-62
2023/04/18 11:03:40;;;;;;;14.15;8.40;;;11.40;99.90;;;;;;5077184;28;20074;-62
2023/04/18 11:06:06;;;;;;;14.60;8.43;;;11.30;99.90;;;;;;5076979;28;20024;-62
2023/04/18 11:08:31;;;;;;;17.13;7.77;;;11.20;99.90;;;;;;5077434;28;20115;-63
2023/04/18 11:11:02;;;;;;;13.37;8.13;;;11.10;99.90;;;;;;5076721;28;20335;-63
2023/04/18 11:13:28;;;;;;;12.00;7.30;;;11.40;99.90;;;;;;5076613;28;20025;-61
2023/04/18 11:15:54;;;;;;;14.10;8.33;;;11.90;99.90;;;;;;5077199;28;20044;-63
2023/04/18 11:18:19;;;;;;;14.53;7.40;;;11.90;99.90;;;;;;5076236;28;20021;-61
2023/04/18 11:20:50;;;;;;;12.43;7.30;;;11.80;99.90;;;;;;5077514;28;20027;-63
2023/04/18 11:23:22;;;;;;;18.08;7.30;;;11.80;99.90;;;;;;5076041;28;20031;-62
2023/04/18 11:25:53;;;;;;;10.55;6.57;;;11.50;99.90;;;;;;5077655;28;20400;-62
2023/04/18 11:28:23;;;;;;;14.82;8.57;;;11.50;99.90;;;;;;5076962;28;20051;-63
2023/04/18 11:30:49;;;;;;;12.65;8.02;;;11.70;99.90;;;;;;5077399;28;20387;-62
2023/04/18 11:33:15;;;;;;;14.03;8.67;;;12.30;99.90;;;;;;5077098;28;20025;-62
2023/04/18 11:35:43;;;;;;;15.20;8.93;;;12.50;99.90;;;;;;5077351;28;20258;-62
2023/04/18 11:38:12;;;;;;;17.98;8.15;;;12.30;99.90;;;;;;5076972;28;20047;-62
2023/04/18 11:40:38;;;;;;;16.20;8.02;;;12.10;99.90;;;;;;5077278;28;20016;-63
2023/04/18 11:43:06;;;;;;;9.93;4.93;;;12.10;99.90;;;;;;5076826;28;20135;-63
2023/04/18 11:45:32;;;;;;;14.98;7.63;;;11.90;99.90;;;;;;5076163;28;20315;-62
2023/04/18 11:47:59;;;;;;;17.50;8.23;;;11.80;99.90;;;;;;5077214;28;20021;-61
2023/04/18 11:50:25;;;;;;;16.88;8.75;;;11.70;99.90;;;;;;5076749;28;20039;-62
2023/04/18 11:52:53;;;;;;;16.55;8.10;;;11.80;99.90;;;;;;5077123;28;20107;-63
2023/04/18 11:55:25;;;;;;;14.95;7.72;;;11.80;99.90;;;;;;5077135;28;20032;-62
2023/04/18 11:57:58;;;;;;;17.70;9.48;;;11.80;99.90;;;;;;5063140;28;20086;-63
2023/04/18 12:00:38;;;;;;;18.25;9.23;;;11.90;99.90;;;;;;5076984;28;20029;-63
2023/04/18 12:03:08;;;;;;;25.00;10.05;;;11.80;99.90;;;;;;5063713;28;20077;-61
2023/04/18 12:05:36;;;;;;;11.75;6.93;;;11.80;99.90;;;;;;5076851;28;20358;-67
2023/04/18 12:08:12;;;;;;;16.52;8.27;;;12.00;99.90;;;;;;5076472;28;20024;-62
2023/04/18 12:10:49;;;;;;;;;;;12.10;99.90;;;;;;5076473;28;20099;-65
2023/04/18 12:13:15;;;;;;;14.75;9.20;;;12.10;99.90;;;;;;5063605;28;19911;-61
2023/04/18 12:15:43;;;;;;;12.77;8.02;;;12.10;99.90;;;;;;5076577;28;20025;-62
2023/04/18 12:18:15;;;;;;;15.43;8.68;;;12.10;99.90;;;;;;5076290;28;20035;-62
2023/04/18 12:20:49;;;;;;;18.27;10.40;;;12.10;99.90;;;;;;5076632;28;20478;-62
2023/04/18 12:23:34;;;;;;;15.50;7.80;;;12.20;99.90;;;;;;5076358;28;20035;-64
2023/04/18 12:26:06;;;;;;;9.77;6.75;;;12.00;99.90;;;;;;5076844;28;20044;-63
2023/04/18 12:28:34;;;;;;;16.75;9.15;;;12.20;99.90;;;;;;5062903;28;20090;-62
2023/04/18 12:31:00;;;;;;;13.27;7.70;;;12.30;99.90;;;;;;5076201;28;20078;-66
2023/04/18 12:33:26;;;;;;;16.90;8.63;;;12.30;99.90;;;;;;5074587;28;20019;-62
2023/04/18 12:35:52;;;;;;;17.60;8.93;;;12.30;99.90;;;;;;5076630;28;20104;-62
2023/04/18 12:38:21;;;;;;;15.65;9.55;;;12.30;99.90;;;;;;5075865;28;20353;-62
2023/04/18 12:40:47;;;;;;;15.57;8.80;;;12.40;99.90;;;;;;5076160;28;20036;-66
2023/04/18 12:43:12;;;;;;;15.57;9.80;;;12.50;99.90;;;;;;5075824;28;20478;-62
2023/04/18 12:45:38;;;;;;;18.00;8.97;;;12.60;99.90;;;;;;5076191;28;20020;-63